createdAt,value
2017-11-10T00:00:33.628Z,90.28
2017-11-10T00:01:14.226Z,89.61
2017-11-10T00:01:54.790Z,89.8
2017-11-10T00:02:35.369Z,89.52
2017-11-10T00:03:15.939Z,89.9
2017-11-10T00:03:56.518Z,89.71
2017-11-10T00:04:37.106Z,90.09
2017-11-10T00:05:17.680Z,89.61
2017-11-10T00:05:58.258Z,90
2017-11-10T00:06:38.832Z,89.9
2017-11-10T00:07:19.429Z,89.61
2017-11-10T00:08:00.012Z,90.09
2017-11-10T00:08:40.586Z,89.61
2017-11-10T00:09:21.152Z,89.71
2017-11-10T00:10:01.770Z,89.33
2017-11-10T00:10:42.353Z,89.61
2017-11-10T00:11:22.951Z,89.14
2017-11-10T00:12:03.554Z,89.61
2017-11-10T00:12:44.137Z,89.23
2017-11-10T00:13:24.721Z,89.42
2017-11-10T00:14:05.299Z,89.33
2017-11-10T00:14:45.916Z,89.23
2017-11-10T00:15:26.502Z,89.33
2017-11-10T00:16:07.085Z,89.23
2017-11-10T00:16:47.673Z,89.23
2017-11-10T00:17:28.291Z,89.52
2017-11-10T00:18:08.888Z,89.61
2017-11-10T00:18:49.453Z,89.42
2017-11-10T00:19:30.079Z,89.52
2017-11-10T00:20:10.686Z,89.33
2017-11-10T00:20:51.286Z,89.23
2017-11-10T00:21:31.859Z,89.33
2017-11-10T00:22:12.456Z,89.33
2017-11-10T00:22:53.050Z,89.42
2017-11-10T00:23:33.626Z,89.23
2017-11-10T00:24:14.249Z,89.42
2017-11-10T00:24:54.817Z,89.33
2017-11-10T00:25:35.385Z,89.71
2017-11-10T00:26:15.958Z,89.33
2017-11-10T00:26:56.640Z,89.33
2017-11-10T00:27:37.209Z,89.23
2017-11-10T00:28:17.803Z,89.14
2017-11-10T00:28:58.972Z,89.33
2017-11-10T00:29:39.532Z,89.33
2017-11-10T00:30:20.109Z,89.23
2017-11-10T00:31:00.710Z,89.33
2017-11-10T00:31:41.290Z,89.23
2017-11-10T00:32:21.863Z,88.95
2017-11-10T00:33:02.448Z,89.28
2017-11-10T00:33:43.033Z,89
2017-11-10T00:34:23.625Z,89.42
2017-11-10T00:35:04.206Z,89.04
2017-11-10T00:35:44.779Z,89
2017-11-10T00:36:25.374Z,89.33
2017-11-10T00:37:06.048Z,89.23
2017-11-10T00:37:46.558Z,89.14
2017-11-10T00:38:27.165Z,89.23
2017-11-10T00:39:07.732Z,89.52
2017-11-10T00:39:48.292Z,89.37
2017-11-10T00:40:28.875Z,89.37
2017-11-10T00:41:09.459Z,89.42
2017-11-10T00:41:50.031Z,89.33
2017-11-10T00:42:30.680Z,89.09
2017-11-10T00:43:11.238Z,89.14
2017-11-10T00:43:51.849Z,89.18
2017-11-10T00:44:32.424Z,89.23
2017-11-10T00:45:12.988Z,88.95
2017-11-10T00:45:53.554Z,89.23
2017-11-10T00:46:34.114Z,89.33
2017-11-10T00:47:14.685Z,89.23
2017-11-10T00:47:55.261Z,89.09
2017-11-10T00:48:35.859Z,89.14
2017-11-10T00:49:16.484Z,89.23
2017-11-10T00:49:57.063Z,89.23
2017-11-10T00:50:37.648Z,89.14
2017-11-10T00:51:18.264Z,89.14
2017-11-10T00:51:58.818Z,89.42
2017-11-10T00:52:39.404Z,89.37
2017-11-10T00:53:19.989Z,89.56
2017-11-10T00:54:00.565Z,89.23
2017-11-10T00:54:41.150Z,89.23
2017-11-10T00:55:21.764Z,89.66
2017-11-10T00:56:02.318Z,89.56
2017-11-10T00:56:42.878Z,89.61
2017-11-10T00:57:23.484Z,89.85
2017-11-10T00:58:04.048Z,90
2017-11-10T00:58:44.609Z,89.71
2017-11-10T00:59:25.175Z,90.7
2017-11-10T01:00:05.763Z,90.37
2017-11-10T01:00:46.339Z,90.52
2017-11-10T01:01:26.913Z,90.28
2017-11-10T01:02:07.483Z,90.28
2017-11-10T01:02:48.051Z,90.19
2017-11-10T01:03:28.650Z,90
2017-11-10T01:04:09.204Z,90.61
2017-11-10T01:04:49.768Z,90.19
2017-11-10T01:05:30.328Z,90.56
2017-11-10T01:06:10.909Z,90.04
2017-11-10T01:06:51.473Z,90.28
2017-11-10T01:07:32.037Z,90.47
2017-11-10T01:08:12.597Z,90.28
2017-11-10T01:08:53.184Z,90.56
2017-11-10T01:09:33.746Z,90.94
2017-11-10T01:10:14.317Z,90.85
2017-11-10T01:10:54.897Z,91.71
2017-11-10T01:11:35.464Z,91.23
2017-11-10T01:12:16.025Z,91.42
2017-11-10T01:12:56.586Z,91.52
2017-11-10T01:13:37.148Z,91.13
2017-11-10T01:14:17.726Z,91.71
2017-11-10T01:14:58.304Z,91.71
2017-11-10T01:15:38.893Z,91.61
2017-11-10T01:16:19.444Z,91.71
2017-11-10T01:17:00.007Z,91.71
2017-11-10T01:17:40.588Z,91.61
2017-11-10T01:18:21.168Z,91.61
2017-11-10T01:19:01.737Z,91.99
2017-11-10T01:19:42.311Z,92.08
2017-11-10T01:20:22.902Z,91.89
2017-11-10T01:21:03.462Z,92.08
2017-11-10T01:21:44.052Z,91.71
2017-11-10T01:22:24.613Z,91.71
2017-11-10T01:23:05.184Z,91.71
2017-11-10T01:23:45.752Z,91.99
2017-11-10T01:24:26.320Z,91.61
2017-11-10T01:25:06.925Z,92.46
2017-11-10T01:25:47.549Z,92.08
2017-11-10T01:26:28.119Z,92.94
2017-11-10T01:27:08.731Z,92.46
2017-11-10T01:27:49.441Z,92.37
2017-11-10T01:28:30.040Z,92.46
2017-11-10T01:29:10.598Z,92.94
2017-11-10T01:29:51.161Z,92.85
2017-11-10T01:30:31.727Z,93.23
2017-11-10T01:31:12.311Z,92.94
2017-11-10T01:31:52.903Z,93.41
2017-11-10T01:32:33.462Z,93.23
2017-11-10T01:33:14.037Z,93.13
2017-11-10T01:33:54.613Z,93.51
2017-11-10T01:34:35.187Z,94.46
2017-11-10T01:35:15.762Z,94.27
2017-11-10T01:35:56.333Z,94.27
2017-11-10T01:36:36.905Z,93.99
2017-11-10T01:37:17.487Z,94.37
2017-11-10T01:37:58.045Z,94.56
2017-11-10T01:38:38.621Z,94.46
2017-11-10T01:39:19.197Z,94.74
2017-11-10T01:39:59.776Z,94.93
2017-11-10T01:40:40.333Z,95.22
2017-11-10T01:41:20.904Z,95.32
2017-11-10T01:42:01.494Z,95.7
2017-11-10T01:42:42.088Z,95.41
2017-11-10T01:43:22.729Z,95.51
2017-11-10T01:44:03.284Z,95.32
2017-11-10T01:44:43.841Z,95.7
2017-11-10T01:45:24.417Z,95.6
2017-11-10T01:46:04.979Z,95.03
2017-11-10T01:46:45.555Z,95.98
2017-11-10T01:47:26.122Z,95.7
2017-11-10T01:48:06.683Z,95.41
2017-11-10T01:48:47.362Z,96.36
2017-11-10T01:49:27.897Z,96.08
2017-11-10T01:50:08.525Z,96.17
2017-11-10T01:50:49.101Z,95.98
2017-11-10T01:51:29.721Z,96.45
2017-11-10T01:52:10.332Z,97.03
2017-11-10T01:52:50.917Z,96.74
2017-11-10T01:53:31.519Z,96.65
2017-11-10T01:54:12.121Z,96.74
2017-11-10T01:54:52.708Z,97.5
2017-11-10T01:55:33.285Z,97.12
2017-11-10T01:56:13.921Z,97.5
2017-11-10T01:56:54.502Z,97.5
2017-11-10T01:57:35.086Z,97.5
2017-11-10T01:58:15.699Z,97.41
2017-11-10T01:58:56.264Z,97.78
2017-11-10T01:59:36.830Z,97.78
2017-11-10T02:00:17.407Z,98.17
2017-11-10T02:00:57.999Z,98.07
2017-11-10T02:01:38.594Z,97.97
2017-11-10T02:02:19.160Z,97.6
2017-11-10T02:02:59.741Z,97.5
2017-11-10T02:03:40.294Z,98.36
2017-11-10T02:04:20.882Z,98.36
2017-11-10T02:05:01.491Z,98.55
2017-11-10T02:05:42.044Z,98.64
2017-11-10T02:06:22.648Z,98.26
2017-11-10T02:07:03.230Z,97.78
2017-11-10T02:07:43.801Z,98.17
2017-11-10T02:08:24.362Z,98.17
2017-11-10T02:09:04.945Z,98.55
2017-11-10T02:09:45.513Z,98.83
2017-11-10T02:10:26.088Z,98.74
2017-11-10T02:11:06.657Z,98.45
2017-11-10T02:11:47.231Z,98.55
2017-11-10T02:12:27.800Z,98.55
2017-11-10T02:13:08.413Z,99.11
2017-11-10T02:13:48.987Z,98.64
2017-11-10T02:14:29.557Z,98.74
2017-11-10T02:15:10.132Z,98.74
2017-11-10T02:15:50.710Z,99.11
2017-11-10T02:16:31.289Z,98.83
2017-11-10T02:17:11.857Z,98.83
2017-11-10T02:17:52.424Z,98.93
2017-11-10T02:18:33.013Z,98.93
2017-11-10T02:19:13.595Z,98.83
2017-11-10T02:19:54.198Z,99.02
2017-11-10T02:20:34.788Z,99.69
2017-11-10T02:21:15.366Z,99.4
2017-11-10T02:21:55.948Z,99.21
2017-11-10T02:22:36.515Z,99.3
2017-11-10T02:23:17.078Z,99.78
2017-11-10T02:23:57.687Z,99.4
2017-11-10T02:24:38.246Z,99.64
2017-11-10T02:25:18.808Z,99.59
2017-11-10T02:25:59.394Z,99.69
2017-11-10T02:26:39.953Z,99.59
2017-11-10T02:27:20.512Z,99.69
2017-11-10T02:28:01.075Z,99.5
2017-11-10T02:28:41.674Z,99.99
2017-11-10T02:29:22.273Z,99.99
2017-11-10T02:30:02.862Z,99.88
2017-11-10T02:30:43.424Z,99.83
2017-11-10T02:31:23.987Z,99.92
2017-11-10T02:32:04.574Z,99.54
2017-11-10T02:32:45.166Z,99.99
2017-11-10T02:33:25.729Z,99.99
2017-11-10T02:34:06.305Z,99.99
2017-11-10T02:34:46.882Z,99.99
2017-11-10T02:35:27.458Z,99.99
2017-11-10T02:36:08.059Z,99.99
2017-11-10T02:36:48.690Z,99.99
2017-11-10T02:37:29.263Z,99.99
2017-11-10T02:38:09.840Z,99.99
2017-11-10T02:38:50.404Z,99.99
2017-11-10T02:39:30.974Z,99.99
2017-11-10T02:40:11.551Z,99.99
2017-11-10T02:40:52.108Z,99.92
2017-11-10T02:41:32.688Z,99.99
2017-11-10T02:42:13.245Z,99.99
2017-11-10T02:42:53.812Z,99.92
2017-11-10T02:43:34.371Z,99.99
2017-11-10T02:44:14.929Z,99.99
2017-11-10T02:44:55.491Z,99.99
2017-11-10T02:45:36.090Z,99.99
2017-11-10T02:46:16.673Z,99.99
2017-11-10T02:46:57.253Z,99.99
2017-11-10T02:47:37.830Z,99.99
2017-11-10T02:48:18.410Z,99.99
2017-11-10T02:48:58.975Z,99.99
2017-11-10T02:49:39.545Z,99.99
2017-11-10T02:50:20.106Z,99.99
2017-11-10T02:51:00.665Z,99.99
2017-11-10T02:51:41.219Z,99.99
2017-11-10T02:52:21.782Z,99.99
2017-11-10T02:53:02.374Z,99.99
2017-11-10T02:53:43.083Z,99.99
2017-11-10T02:54:23.564Z,99.99
2017-11-10T02:55:04.156Z,99.99
2017-11-10T02:55:44.718Z,99.99
2017-11-10T02:56:25.274Z,99.99
2017-11-10T02:57:05.871Z,99.99
2017-11-10T02:57:46.433Z,99.99
2017-11-10T02:58:27.001Z,99.99
2017-11-10T02:59:07.556Z,99.99
2017-11-10T02:59:48.149Z,99.99
2017-11-10T03:00:28.708Z,99.99
2017-11-10T03:01:09.273Z,99.99
2017-11-10T03:01:49.854Z,99.99
2017-11-10T03:02:30.417Z,99.99
2017-11-10T03:03:10.991Z,99.99
2017-11-10T03:03:51.566Z,99.99
2017-11-10T03:04:32.188Z,99.99
2017-11-10T03:05:12.767Z,99.99
2017-11-10T03:05:53.330Z,99.99
2017-11-10T03:06:33.904Z,99.99
2017-11-10T03:07:14.475Z,99.99
2017-11-10T03:07:55.044Z,99.99
2017-11-10T03:08:35.618Z,99.99
2017-11-10T03:09:16.180Z,99.99
2017-11-10T03:09:56.756Z,99.99
2017-11-10T03:10:37.330Z,99.99
2017-11-10T03:11:17.911Z,99.99
2017-11-10T03:11:58.475Z,99.99
2017-11-10T03:12:39.033Z,99.99
2017-11-10T03:13:19.596Z,99.99
2017-11-10T03:14:00.154Z,99.99
2017-11-10T03:14:40.730Z,99.99
2017-11-10T03:15:21.407Z,99.99
2017-11-10T03:16:02.000Z,99.99
2017-11-10T03:16:42.543Z,99.99
2017-11-10T03:17:23.104Z,99.99
2017-11-10T03:18:03.681Z,99.99
2017-11-10T03:18:44.264Z,99.99
2017-11-10T03:19:24.885Z,99.99
2017-11-10T03:20:05.467Z,99.99
2017-11-10T03:20:46.044Z,99.99
2017-11-10T03:21:26.613Z,99.99
2017-11-10T03:22:07.185Z,99.99
2017-11-10T03:22:47.770Z,99.99
2017-11-10T03:23:28.366Z,99.99
2017-11-10T03:24:08.949Z,99.99
2017-11-10T03:24:49.541Z,99.99
2017-11-10T03:25:30.121Z,99.99
2017-11-10T03:26:10.680Z,99.99
2017-11-10T03:26:51.252Z,99.99
2017-11-10T03:27:31.819Z,99.99
2017-11-10T03:28:12.395Z,99.99
2017-11-10T03:28:52.966Z,99.99
2017-11-10T03:29:33.526Z,99.99
2017-11-10T03:30:14.167Z,99.99
2017-11-10T03:30:54.727Z,99.99
2017-11-10T03:31:35.301Z,99.99
2017-11-10T03:32:15.902Z,99.99
2017-11-10T03:32:56.487Z,99.99
2017-11-10T03:33:37.048Z,99.99
2017-11-10T03:34:17.633Z,99.99
2017-11-10T03:34:58.243Z,99.99
2017-11-10T03:35:38.815Z,99.99
2017-11-10T03:36:19.382Z,99.99
2017-11-10T03:37:00.001Z,99.99
2017-11-10T03:37:40.605Z,99.99
2017-11-10T03:38:21.173Z,99.99
2017-11-10T03:39:01.761Z,99.99
2017-11-10T03:39:42.325Z,99.99
2017-11-10T03:40:22.927Z,99.99
2017-11-10T03:41:03.499Z,99.99
2017-11-10T03:41:44.063Z,99.99
2017-11-10T03:42:24.629Z,99.99
2017-11-10T03:43:05.206Z,99.99
2017-11-10T03:43:45.854Z,99.99
2017-11-10T03:44:26.442Z,99.99
2017-11-10T03:45:06.997Z,99.99
2017-11-10T03:45:47.591Z,99.99
2017-11-10T03:46:28.160Z,99.99
2017-11-10T03:47:08.747Z,99.99
2017-11-10T03:47:49.315Z,99.99
2017-11-10T03:48:29.880Z,99.99
2017-11-10T03:49:10.468Z,99.99
2017-11-10T03:49:51.047Z,99.99
2017-11-10T03:50:31.635Z,99.99
2017-11-10T03:51:12.192Z,99.99
2017-11-10T03:51:52.763Z,99.99
2017-11-10T03:52:33.330Z,99.99
2017-11-10T03:53:13.905Z,99.99
2017-11-10T03:53:54.483Z,99.99
2017-11-10T03:54:35.047Z,99.99
2017-11-10T03:55:15.599Z,99.99
2017-11-10T03:55:56.185Z,99.99
2017-11-10T03:56:36.752Z,99.99
2017-11-10T03:57:17.350Z,99.99
2017-11-10T03:57:57.907Z,99.99
2017-11-10T03:58:38.496Z,99.99
2017-11-10T03:59:19.092Z,99.99
2017-11-10T03:59:59.658Z,99.99
2017-11-10T04:00:40.231Z,99.99
2017-11-10T04:01:20.817Z,99.99
2017-11-10T04:02:01.409Z,99.99
2017-11-10T04:02:41.969Z,99.99
2017-11-10T04:03:22.524Z,99.99
2017-11-10T04:04:03.094Z,99.99
2017-11-10T04:04:43.655Z,99.99
2017-11-10T04:05:24.223Z,99.99
2017-11-10T04:06:04.785Z,99.99
2017-11-10T04:06:45.362Z,99.99
2017-11-10T04:07:25.956Z,99.99
2017-11-10T04:08:06.529Z,99.99
2017-11-10T04:08:47.091Z,99.99
2017-11-10T04:09:27.647Z,99.99
2017-11-10T04:10:08.226Z,99.99
2017-11-10T04:10:48.808Z,99.99
2017-11-10T04:11:29.379Z,99.99
2017-11-10T04:12:09.935Z,99.99
2017-11-10T04:12:50.509Z,99.99
2017-11-10T04:13:31.092Z,99.99
2017-11-10T04:14:11.792Z,99.99
2017-11-10T04:14:52.368Z,99.99
2017-11-10T04:15:32.960Z,99.99
2017-11-10T04:16:13.526Z,99.99
2017-11-10T04:16:54.103Z,99.99
2017-11-10T04:17:34.671Z,99.99
2017-11-10T04:18:15.305Z,99.99
2017-11-10T04:18:55.891Z,99.99
2017-11-10T04:19:36.460Z,99.99
2017-11-10T04:20:17.051Z,99.99
2017-11-10T04:20:57.650Z,99.99
2017-11-10T04:21:38.229Z,99.99
2017-11-10T04:22:18.834Z,99.99
2017-11-10T04:22:59.418Z,99.99
2017-11-10T04:23:39.965Z,99.99
2017-11-10T04:24:20.521Z,99.99
2017-11-10T04:25:01.111Z,99.99
2017-11-10T04:25:41.703Z,99.99
2017-11-10T04:26:22.284Z,99.99
2017-11-10T04:27:02.866Z,99.99
2017-11-10T04:27:43.446Z,99.99
2017-11-10T04:28:24.011Z,99.99
2017-11-10T04:29:04.613Z,99.99
2017-11-10T04:29:45.183Z,99.99
2017-11-10T04:30:25.768Z,99.99
2017-11-10T04:31:06.329Z,99.99
2017-11-10T04:31:46.919Z,99.99
2017-11-10T04:32:27.510Z,99.99
2017-11-10T04:33:08.086Z,99.99
2017-11-10T04:33:48.658Z,99.99
2017-11-10T04:34:29.240Z,99.99
2017-11-10T04:35:09.840Z,99.99
2017-11-10T04:35:50.530Z,99.99
2017-11-10T04:36:31.155Z,99.99
2017-11-10T04:37:11.710Z,99.99
2017-11-10T04:37:52.289Z,99.99
2017-11-10T04:38:32.866Z,99.99
2017-11-10T04:39:13.446Z,99.99
2017-11-10T04:39:54.049Z,99.99
2017-11-10T04:40:34.619Z,99.99
2017-11-10T04:41:15.182Z,99.99
2017-11-10T04:41:55.752Z,99.99
2017-11-10T04:42:36.339Z,99.99
2017-11-10T04:43:16.907Z,99.99
2017-11-10T04:43:57.481Z,99.99
2017-11-10T04:44:38.041Z,99.99
2017-11-10T04:45:18.617Z,99.99
2017-11-10T04:45:59.171Z,99.99
2017-11-10T04:46:39.742Z,99.99
2017-11-10T04:47:20.322Z,99.99
2017-11-10T04:48:00.892Z,99.99
2017-11-10T04:48:41.467Z,99.99
2017-11-10T04:49:22.041Z,99.99
2017-11-10T04:50:02.608Z,99.99
2017-11-10T04:50:43.178Z,99.99
2017-11-10T04:51:23.749Z,99.99
2017-11-10T04:52:04.359Z,99.99
2017-11-10T04:52:45.018Z,99.99
2017-11-10T04:53:25.596Z,99.99
2017-11-10T04:54:06.159Z,99.99
2017-11-10T04:54:46.722Z,99.99
2017-11-10T04:55:27.288Z,99.99
2017-11-10T04:56:07.867Z,99.99
2017-11-10T04:56:48.427Z,99.99
2017-11-10T04:57:29.030Z,99.99
2017-11-10T04:58:09.609Z,99.99
2017-11-10T04:58:50.206Z,99.99
2017-11-10T04:59:30.793Z,99.99
2017-11-10T05:00:11.366Z,99.99
2017-11-10T05:00:52.007Z,99.99
2017-11-10T05:01:32.585Z,99.99
2017-11-10T05:02:13.141Z,99.99
2017-11-10T05:02:53.720Z,99.99
2017-11-10T05:03:34.301Z,99.99
2017-11-10T05:04:14.871Z,99.99
2017-11-10T05:04:55.426Z,99.99
2017-11-10T05:05:35.986Z,99.99
2017-11-10T05:06:16.589Z,99.99
2017-11-10T05:06:57.185Z,99.99
2017-11-10T05:07:37.769Z,99.99
2017-11-10T05:08:18.374Z,99.99
2017-11-10T05:08:58.972Z,99.99
2017-11-10T05:09:39.754Z,99.99
2017-11-10T05:10:20.340Z,99.99
2017-11-10T05:11:00.905Z,99.99
2017-11-10T05:11:41.471Z,99.99
2017-11-10T05:12:22.299Z,99.99
2017-11-10T05:13:03.120Z,99.99
2017-11-10T05:13:43.746Z,99.99
2017-11-10T05:14:24.359Z,99.99
2017-11-10T05:15:04.928Z,99.99
2017-11-10T05:15:45.503Z,99.99
2017-11-10T05:16:26.972Z,99.99
2017-11-10T05:17:07.535Z,99.99
2017-11-10T05:17:49.725Z,99.99
2017-11-10T05:18:30.285Z,99.99
2017-11-10T05:19:10.841Z,99.99
2017-11-10T05:19:51.444Z,99.99
2017-11-10T05:20:32.000Z,99.99
2017-11-10T05:21:12.580Z,99.99
2017-11-10T05:21:53.351Z,99.99
2017-11-10T05:22:34.449Z,99.99
2017-11-10T05:23:15.018Z,99.99
2017-11-10T05:23:55.578Z,99.99
2017-11-10T05:24:37.388Z,99.99
2017-11-10T05:25:17.988Z,99.99
2017-11-10T05:25:58.585Z,99.99
2017-11-10T05:26:39.157Z,99.99
2017-11-10T05:27:19.803Z,99.99
2017-11-10T05:28:00.382Z,99.99
2017-11-10T05:28:40.944Z,99.99
2017-11-10T05:29:21.510Z,99.99
2017-11-10T05:30:02.091Z,99.99
2017-11-10T05:30:42.670Z,99.99
2017-11-10T05:31:23.227Z,99.99
2017-11-10T05:32:03.792Z,99.99
2017-11-10T05:32:44.390Z,99.99
2017-11-10T05:33:24.944Z,99.99
2017-11-10T05:34:05.510Z,99.99
2017-11-10T05:34:46.094Z,99.99
2017-11-10T05:35:26.693Z,99.99
2017-11-10T05:36:07.265Z,99.99
2017-11-10T05:36:47.848Z,99.99
2017-11-10T05:37:28.434Z,99.99
2017-11-10T05:38:09.008Z,99.99
2017-11-10T05:38:49.566Z,99.99
2017-11-10T05:39:31.060Z,99.99
2017-11-10T05:40:11.493Z,99.99
2017-11-10T05:40:52.064Z,99.99
2017-11-10T05:41:32.802Z,99.99
2017-11-10T05:42:13.917Z,99.99
2017-11-10T05:42:54.609Z,99.99
2017-11-10T05:43:35.184Z,99.99
2017-11-10T05:44:15.758Z,99.99
2017-11-10T05:44:56.332Z,99.99
2017-11-10T05:45:36.911Z,99.99
2017-11-10T05:46:17.506Z,99.99
2017-11-10T05:46:58.100Z,99.99
2017-11-10T05:47:38.682Z,99.99
2017-11-10T05:48:19.252Z,99.99
2017-11-10T05:48:59.852Z,99.99
2017-11-10T05:49:40.412Z,99.99
2017-11-10T05:50:20.975Z,99.99
2017-11-10T05:51:01.554Z,99.99
2017-11-10T05:51:42.151Z,99.99
2017-11-10T05:52:22.707Z,99.99
2017-11-10T05:53:03.299Z,99.99
2017-11-10T05:53:43.854Z,99.99
2017-11-10T05:54:24.414Z,99.99
2017-11-10T05:55:05.023Z,99.99
2017-11-10T05:55:45.612Z,99.99
2017-11-10T05:56:26.205Z,99.99
2017-11-10T05:57:06.800Z,99.99
2017-11-10T05:57:47.362Z,99.99
2017-11-10T05:58:27.938Z,99.99
2017-11-10T05:59:08.507Z,99.99
2017-11-10T05:59:49.108Z,99.99
2017-11-10T06:00:29.663Z,99.99
2017-11-10T06:01:10.228Z,99.99
2017-11-10T06:01:50.784Z,99.99
2017-11-10T06:02:31.353Z,99.99
2017-11-10T06:03:11.924Z,99.99
2017-11-10T06:03:52.511Z,99.99
2017-11-10T06:04:33.057Z,99.99
2017-11-10T06:05:13.630Z,99.99
2017-11-10T06:05:54.238Z,99.99
2017-11-10T06:06:35.011Z,99.99
2017-11-10T06:07:15.572Z,99.99
2017-11-10T06:07:56.141Z,99.99
2017-11-10T06:08:36.746Z,99.99
2017-11-10T06:09:17.315Z,99.99
2017-11-10T06:09:57.871Z,99.99
2017-11-10T06:10:38.430Z,99.99
2017-11-10T06:11:19.039Z,99.99
2017-11-10T06:12:01.050Z,99.99
2017-11-10T06:12:40.694Z,99.99
2017-11-10T06:13:21.265Z,99.99
2017-11-10T06:14:02.888Z,99.99
2017-11-10T06:14:43.468Z,99.99
2017-11-10T06:15:24.961Z,99.99
2017-11-10T06:16:05.543Z,99.99
2017-11-10T06:16:46.152Z,99.99
2017-11-10T06:17:26.730Z,99.99
2017-11-10T06:18:07.300Z,99.99
2017-11-10T06:18:47.859Z,99.99
2017-11-10T06:19:28.524Z,99.99
2017-11-10T06:20:09.101Z,99.99
2017-11-10T06:20:49.668Z,99.99
2017-11-10T06:21:30.231Z,99.99
2017-11-10T06:22:10.807Z,99.99
2017-11-10T06:22:51.366Z,99.99
2017-11-10T06:23:31.940Z,99.99
2017-11-10T06:24:12.512Z,99.99
2017-11-10T06:24:53.096Z,99.99
2017-11-10T06:25:33.671Z,99.99
2017-11-10T06:26:14.279Z,99.99
2017-11-10T06:26:54.848Z,99.99
2017-11-10T06:27:35.423Z,99.99
2017-11-10T06:28:16.042Z,99.99
2017-11-10T06:28:56.638Z,99.99
2017-11-10T06:29:37.213Z,99.99
2017-11-10T06:30:17.779Z,99.99
2017-11-10T06:30:58.382Z,99.99
2017-11-10T06:31:38.983Z,99.99
2017-11-10T06:32:19.540Z,99.99
2017-11-10T06:33:00.127Z,99.99
2017-11-10T06:33:40.701Z,99.99
2017-11-10T06:34:21.295Z,99.99
2017-11-10T06:35:01.874Z,99.99
2017-11-10T06:35:42.444Z,99.99
2017-11-10T06:36:23.060Z,99.99
2017-11-10T06:37:03.637Z,99.99
2017-11-10T06:37:44.246Z,99.99
2017-11-10T06:38:24.826Z,99.99
2017-11-10T06:39:05.426Z,99.99
2017-11-10T06:39:46.350Z,99.99
2017-11-10T06:40:27.048Z,99.99
2017-11-10T06:41:07.642Z,99.99
2017-11-10T06:41:48.197Z,99.99
2017-11-10T06:42:28.777Z,99.99
2017-11-10T06:43:09.467Z,99.99
2017-11-10T06:43:50.042Z,99.93
2017-11-10T06:44:30.629Z,98.03
2017-11-10T06:45:11.226Z,97.74
2017-11-10T06:45:51.801Z,98.22
2017-11-10T06:46:32.371Z,96.89
2017-11-10T06:47:12.951Z,96.31
2017-11-10T06:47:53.530Z,96.65
2017-11-10T06:48:34.108Z,96.27
2017-11-10T06:49:14.698Z,94.93
2017-11-10T06:49:55.271Z,94.27
2017-11-10T06:50:35.847Z,94.56
2017-11-10T06:51:16.439Z,93.51
2017-11-10T06:51:57.059Z,93.13
2017-11-10T06:52:37.640Z,92.84
2017-11-10T06:53:18.221Z,93.6
2017-11-10T06:53:58.800Z,92.27
2017-11-10T06:54:39.393Z,90.65
2017-11-10T06:55:19.973Z,88.65
2017-11-10T06:56:00.617Z,88.37
2017-11-10T06:56:41.209Z,88.46
2017-11-10T06:57:21.784Z,88.79
2017-11-10T06:58:02.392Z,89.27
2017-11-10T06:58:42.980Z,89.94
2017-11-10T06:59:23.558Z,90.51
2017-11-10T07:00:04.158Z,90.89
2017-11-10T07:00:44.716Z,91.51
2017-11-10T07:01:25.310Z,91.7
2017-11-10T07:02:05.924Z,92.46
2017-11-10T07:02:46.510Z,92.46
2017-11-10T07:03:27.091Z,93.13
2017-11-10T07:04:07.664Z,93.32
2017-11-10T07:04:48.251Z,93.79
2017-11-10T07:05:28.863Z,94.08
2017-11-10T07:06:09.421Z,94.65
2017-11-10T07:06:50.006Z,95.12
2017-11-10T07:07:30.572Z,95.22
2017-11-10T07:08:11.131Z,95.27
2017-11-10T07:08:51.696Z,94.93
2017-11-10T07:09:32.249Z,95.65
2017-11-10T07:10:12.867Z,96.12
2017-11-10T07:10:53.424Z,95.36
2017-11-10T07:11:34.024Z,95.27
2017-11-10T07:12:14.600Z,95.65
2017-11-10T07:12:55.178Z,95.36
2017-11-10T07:13:35.765Z,96.12
2017-11-10T07:14:16.338Z,95.65
2017-11-10T07:14:56.923Z,96.12
2017-11-10T07:15:38.256Z,96.03
2017-11-10T07:16:18.834Z,96.41
2017-11-10T07:16:59.409Z,96.41
2017-11-10T07:17:40.003Z,95.94
2017-11-10T07:18:20.577Z,96.12
2017-11-10T07:19:01.167Z,96.6
2017-11-10T07:19:41.759Z,96.5
2017-11-10T07:20:22.411Z,97.55
2017-11-10T07:21:03.019Z,97.36
2017-11-10T07:21:43.593Z,97.55
2017-11-10T07:22:24.170Z,97.27
2017-11-10T07:23:04.745Z,97.27
2017-11-10T07:23:45.302Z,96.79
2017-11-10T07:24:25.921Z,96.98
2017-11-10T07:25:06.507Z,97.36
2017-11-10T07:25:47.087Z,96.98
2017-11-10T07:26:27.670Z,97.45
2017-11-10T07:27:08.278Z,97.36
2017-11-10T07:27:48.868Z,97.93
2017-11-10T07:28:29.431Z,97.55
2017-11-10T07:29:10.053Z,97.93
2017-11-10T07:29:50.639Z,98.03
2017-11-10T07:30:31.231Z,97.27
2017-11-10T07:31:11.836Z,98.12
2017-11-10T07:31:52.429Z,98.07
2017-11-10T07:32:33.003Z,97.45
2017-11-10T07:33:13.587Z,97.22
2017-11-10T07:33:54.183Z,97.41
2017-11-10T07:34:34.772Z,97.31
2017-11-10T07:35:15.321Z,97.27
2017-11-10T07:35:55.908Z,97.31
2017-11-10T07:36:36.530Z,97.6
2017-11-10T07:37:17.104Z,97.22
2017-11-10T07:37:57.686Z,98.26
2017-11-10T07:38:38.271Z,98.26
2017-11-10T07:39:18.869Z,98.07
2017-11-10T07:39:59.468Z,98.17
2017-11-10T07:40:40.050Z,98.83
2017-11-10T07:41:20.666Z,98.64
2017-11-10T07:42:01.257Z,98.36
2017-11-10T07:42:41.816Z,98.64
2017-11-10T07:43:22.433Z,98.36
2017-11-10T07:44:03.084Z,98.45
2017-11-10T07:44:43.660Z,99.02
2017-11-10T07:45:24.211Z,98.45
2017-11-10T07:46:04.790Z,98.74
2017-11-10T07:46:45.381Z,98.83
2017-11-10T07:47:25.988Z,98.74
2017-11-10T07:48:06.562Z,98.74
2017-11-10T07:48:47.172Z,98.55
2017-11-10T07:49:27.724Z,99.11
2017-11-10T07:50:08.309Z,98.83
2017-11-10T07:50:48.877Z,98.93
2017-11-10T07:51:29.463Z,98.93
2017-11-10T07:52:10.023Z,99.21
2017-11-10T07:52:50.582Z,98.93
2017-11-10T07:53:31.147Z,99.02
2017-11-10T07:54:11.708Z,98.93
2017-11-10T07:54:52.281Z,98.83
2017-11-10T07:55:32.846Z,99.4
2017-11-10T07:56:13.420Z,98.93
2017-11-10T07:56:54.021Z,98.93
2017-11-10T07:57:34.582Z,99.02
2017-11-10T07:58:15.197Z,98.83
2017-11-10T07:58:55.795Z,98.55
2017-11-10T07:59:36.447Z,98.74
2017-11-10T08:00:17.037Z,98.74
2017-11-10T08:00:57.834Z,98.93
2017-11-10T08:01:38.411Z,98.93
2017-11-10T08:02:18.972Z,98.74
2017-11-10T08:02:59.571Z,99.21
2017-11-10T08:03:40.173Z,99.11
2017-11-10T08:04:20.762Z,99.3
2017-11-10T08:05:01.351Z,99.3
2017-11-10T08:05:41.932Z,99.4
2017-11-10T08:06:22.493Z,99.11
2017-11-10T08:07:03.061Z,99.21
2017-11-10T08:07:43.640Z,98.93
2017-11-10T08:08:24.204Z,99.4
2017-11-10T08:09:04.808Z,99.21
2017-11-10T08:09:45.366Z,99.5
2017-11-10T08:10:25.933Z,99.69
2017-11-10T08:11:06.545Z,99.69
2017-11-10T08:11:47.135Z,99.88
2017-11-10T08:12:27.672Z,99.78
2017-11-10T08:13:08.246Z,99.78
2017-11-10T08:13:48.829Z,99.69
2017-11-10T08:14:29.403Z,99.21
2017-11-10T08:15:09.964Z,99.78
2017-11-10T08:15:50.543Z,99.4
2017-11-10T08:16:31.170Z,99.4
2017-11-10T08:17:11.793Z,99.5
2017-11-10T08:17:52.382Z,99.59
2017-11-10T08:18:32.953Z,99.5
2017-11-10T08:19:13.519Z,99.5
2017-11-10T08:19:54.116Z,99.4
2017-11-10T08:20:34.662Z,99.4
2017-11-10T08:21:15.240Z,99.5
2017-11-10T08:21:55.906Z,99.5
2017-11-10T08:22:36.468Z,99.4
2017-11-10T08:23:17.083Z,99.11
2017-11-10T08:23:57.675Z,99.78
2017-11-10T08:24:38.264Z,99.78
2017-11-10T08:25:18.838Z,99.21
2017-11-10T08:25:59.406Z,99.97
2017-11-10T08:26:39.982Z,99.78
2017-11-10T08:27:20.554Z,99.21
2017-11-10T08:28:01.142Z,99.78
2017-11-10T08:28:41.700Z,99.88
2017-11-10T08:29:22.281Z,99.78
2017-11-10T08:30:02.851Z,99.4
2017-11-10T08:30:43.428Z,99.3
2017-11-10T08:31:24.038Z,99.78
2017-11-10T08:32:04.590Z,99.4
2017-11-10T08:32:45.192Z,99.59
2017-11-10T08:33:25.779Z,99.69
2017-11-10T08:34:06.367Z,99.5
2017-11-10T08:34:46.976Z,99.78
2017-11-10T08:35:27.575Z,99.4
2017-11-10T08:36:08.162Z,99.69
2017-11-10T08:36:48.753Z,99.21
2017-11-10T08:37:29.324Z,99.21
2017-11-10T08:38:09.879Z,99.78
2017-11-10T08:38:50.449Z,99.78
2017-11-10T08:39:31.028Z,99.78
2017-11-10T08:40:11.610Z,99.11
2017-11-10T08:40:52.190Z,99.4
2017-11-10T08:41:32.772Z,99.4
2017-11-10T08:42:13.333Z,99.11
2017-11-10T08:42:53.917Z,99.78
2017-11-10T08:43:34.487Z,99.99
2017-11-10T08:44:15.050Z,99.99